sensor_id;sensor_type;location;lat;lon;timestamp;temperature;humidity
40077;DHT22;25777;47.824;18.982;2024-01-06T00:00:45;5.30;99.90
40077;DHT22;25777;47.824;18.982;2024-01-06T00:03:11;5.30;99.90
40077;DHT22;25777;47.824;18.982;2024-01-06T00:05:38;5.40;99.90
40077;DHT22;25777;47.824;18.982;2024-01-06T00:08:04;5.40;99.90
40077;DHT22;25777;47.824;18.982;2024-01-06T00:10:36;5.40;99.90
40077;DHT22;25777;47.824;18.982;2024-01-06T00:13:05;5.40;99.90
40077;DHT22;25777;47.824;18.982;2024-01-06T00:15:31;5.50;99.90
40077;DHT22;25777;47.824;18.982;2024-01-06T00:18:07;5.50;99.90
40077;DHT22;25777;47.824;18.982;2024-01-06T00:20:35;5.50;99.90
40077;DHT22;25777;47.824;18.982;2024-01-06T00:23:03;5.50;99.90
40077;DHT22;25777;47.824;18.982;2024-01-06T00:25:29;5.50;99.90
40077;DHT22;25777;47.824;18.982;2024-01-06T00:27:58;5.50;99.90
40077;DHT22;25777;47.824;18.982;2024-01-06T00:30:25;5.50;99.90
40077;DHT22;25777;47.824;18.982;2024-01-06T00:32:52;5.50;99.90
40077;DHT22;25777;47.824;18.982;2024-01-06T00:35:18;5.50;99.90
40077;DHT22;25777;47.824;18.982;2024-01-06T00:37:50;5.50;99.90
40077;DHT22;25777;47.824;18.982;2024-01-06T00:40:39;5.50;99.90
40077;DHT22;25777;47.824;18.982;2024-01-06T00:43:05;5.50;99.90
40077;DHT22;25777;47.824;18.982;2024-01-06T00:45:31;5.50;99.90
40077;DHT22;25777;47.824;18.982;2024-01-06T00:47:57;5.40;99.90
40077;DHT22;25777;47.824;18.982;2024-01-06T00:50:23;5.40;99.90
40077;DHT22;25777;47.824;18.982;2024-01-06T00:52:53;5.40;99.90
40077;DHT22;25777;47.824;18.982;2024-01-06T00:55:22;5.40;99.90
40077;DHT22;25777;47.824;18.982;2024-01-06T00:57:49;5.40;99.90
40077;DHT22;25777;47.824;18.982;2024-01-06T01:00:21;5.40;99.90
40077;DHT22;25777;47.824;18.982;2024-01-06T01:02:48;5.30;99.90
40077;DHT22;25777;47.824;18.982;2024-01-06T01:05:15;5.30;99.90
40077;DHT22;25777;47.824;18.982;2024-01-06T01:07:44;5.30;99.90
40077;DHT22;25777;47.824;18.982;2024-01-06T01:10:11;5.30;99.90
40077;DHT22;25777;47.824;18.982;2024-01-06T01:12:37;5.20;99.90
40077;DHT22;25777;47.824;18.982;2024-01-06T01:15:06;5.20;99.90
40077;DHT22;25777;47.824;18.982;2024-01-06T01:17:39;5.20;99.90
40077;DHT22;25777;47.824;18.982;2024-01-06T01:20:11;5.20;99.90
40077;DHT22;25777;47.824;18.982;2024-01-06T01:22:38;5.10;99.90
40077;DHT22;25777;47.824;18.982;2024-01-06T01:25:04;5.10;99.90
40077;DHT22;25777;47.824;18.982;2024-01-06T01:27:34;5.00;99.90
40077;DHT22;25777;47.824;18.982;2024-01-06T01:30:00;5.00;99.90
40077;DHT22;25777;47.824;18.982;2024-01-06T01:32:28;5.00;99.90
40077;DHT22;25777;47.824;18.982;2024-01-06T01:34:53;5.00;99.90
40077;DHT22;25777;47.824;18.982;2024-01-06T01:37:20;5.00;99.90
40077;DHT22;25777;47.824;18.982;2024-01-06T01:39:47;5.10;99.90
40077;DHT22;25777;47.824;18.982;2024-01-06T01:42:14;5.00;99.90
40077;DHT22;25777;47.824;18.982;2024-01-06T01:44:40;5.20;99.90
40077;DHT22;25777;47.824;18.982;2024-01-06T01:47:06;5.00;99.90
40077;DHT22;25777;47.824;18.982;2024-01-06T01:49:32;5.00;99.90
40077;DHT22;25777;47.824;18.982;2024-01-06T01:52:00;4.90;99.90
40077;DHT22;25777;47.824;18.982;2024-01-06T01:54:27;4.90;99.90
40077;DHT22;25777;47.824;18.982;2024-01-06T01:56:54;5.00;99.90
40077;DHT22;25777;47.824;18.982;2024-01-06T01:59:27;5.00;99.90
40077;DHT22;25777;47.824;18.982;2024-01-06T02:01:53;5.00;99.90
40077;DHT22;25777;47.824;18.982;2024-01-06T02:04:18;4.90;99.90
40077;DHT22;25777;47.824;18.982;2024-01-06T02:06:44;5.00;99.90
40077;DHT22;25777;47.824;18.982;2024-01-06T02:09:11;5.00;99.90
40077;DHT22;25777;47.824;18.982;2024-01-06T02:11:37;5.10;99.90
40077;DHT22;25777;47.824;18.982;2024-01-06T02:14:05;5.00;99.90
40077;DHT22;25777;47.824;18.982;2024-01-06T02:16:31;5.10;99.90
40077;DHT22;25777;47.824;18.982;2024-01-06T02:18:57;5.10;99.90
40077;DHT22;25777;47.824;18.982;2024-01-06T02:21:24;5.10;99.90
40077;DHT22;25777;47.824;18.982;2024-01-06T02:23:56;5.20;99.90
40077;DHT22;25777;47.824;18.982;2024-01-06T02:26:25;5.20;99.90
40077;DHT22;25777;47.824;18.982;2024-01-06T02:28:53;5.20;99.90
40077;DHT22;25777;47.824;18.982;2024-01-06T02:31:19;5.20;99.90
40077;DHT22;25777;47.824;18.982;2024-01-06T02:33:48;5.30;99.90
40077;DHT22;25777;47.824;18.982;2024-01-06T02:36:15;5.30;99.90
40077;DHT22;25777;47.824;18.982;2024-01-06T02:38:41;5.30;99.90
40077;DHT22;25777;47.824;18.982;2024-01-06T02:41:07;5.30;99.90
40077;DHT22;25777;47.824;18.982;2024-01-06T02:43:33;5.30;99.90
40077;DHT22;25777;47.824;18.982;2024-01-06T02:45:59;5.20;99.90
40077;DHT22;25777;47.824;18.982;2024-01-06T02:48:28;5.30;99.90
40077;DHT22;25777;47.824;18.982;2024-01-06T02:51:01;5.30;99.90
40077;DHT22;25777;47.824;18.982;2024-01-06T02:53:29;5.30;99.90
40077;DHT22;25777;47.824;18.982;2024-01-06T02:55:56;5.20;99.90
40077;DHT22;25777;47.824;18.982;2024-01-06T02:58:27;5.20;99.90
40077;DHT22;25777;47.824;18.982;2024-01-06T03:01:03;5.30;99.90
40077;DHT22;25777;47.824;18.982;2024-01-06T03:03:29;5.30;99.90
40077;DHT22;25777;47.824;18.982;2024-01-06T03:05:56;5.30;99.90
40077;DHT22;25777;47.824;18.982;2024-01-06T03:08:22;5.30;99.90
40077;DHT22;25777;47.824;18.982;2024-01-06T03:10:49;5.30;99.90
40077;DHT22;25777;47.824;18.982;2024-01-06T03:13:15;5.30;99.90
40077;DHT22;25777;47.824;18.982;2024-01-06T03:15:41;5.40;99.90
40077;DHT22;25777;47.824;18.982;2024-01-06T03:18:07;5.40;99.90
40077;DHT22;25777;47.824;18.982;2024-01-06T03:20:34;5.40;99.90
40077;DHT22;25777;47.824;18.982;2024-01-06T03:23:01;5.40;99.90
40077;DHT22;25777;47.824;18.982;2024-01-06T03:25:29;5.40;99.90
40077;DHT22;25777;47.824;18.982;2024-01-06T03:28:06;5.40;99.90
40077;DHT22;25777;47.824;18.982;2024-01-06T03:30:34;5.40;99.90
40077;DHT22;25777;47.824;18.982;2024-01-06T03:33:06;5.50;99.90
40077;DHT22;25777;47.824;18.982;2024-01-06T03:35:36;5.40;99.90
40077;DHT22;25777;47.824;18.982;2024-01-06T03:38:03;5.40;99.90
40077;DHT22;25777;47.824;18.982;2024-01-06T03:40:37;5.50;99.90
40077;DHT22;25777;47.824;18.982;2024-01-06T03:43:04;5.50;99.90
40077;DHT22;25777;47.824;18.982;2024-01-06T03:45:31;5.50;99.90
40077;DHT22;25777;47.824;18.982;2024-01-06T03:47:58;5.50;99.90
40077;DHT22;25777;47.824;18.982;2024-01-06T03:50:27;5.50;99.90
40077;DHT22;25777;47.824;18.982;2024-01-06T03:52:54;5.50;99.90
40077;DHT22;25777;47.824;18.982;2024-01-06T03:55:29;5.50;99.90
40077;DHT22;25777;47.824;18.982;2024-01-06T03:57:55;5.50;99.90
40077;DHT22;25777;47.824;18.982;2024-01-06T04:00:26;5.50;99.90
40077;DHT22;25777;47.824;18.982;2024-01-06T04:02:52;5.50;99.90
40077;DHT22;25777;47.824;18.982;2024-01-06T04:05:20;5.50;99.90
40077;DHT22;25777;47.824;18.982;2024-01-06T04:07:47;5.50;99.90
40077;DHT22;25777;47.824;18.982;2024-01-06T04:10:16;5.50;99.90
40077;DHT22;25777;47.824;18.982;2024-01-06T04:12:42;5.50;99.90
40077;DHT22;25777;47.824;18.982;2024-01-06T04:15:10;5.50;99.90
40077;DHT22;25777;47.824;18.982;2024-01-06T04:17:48;5.50;99.90
40077;DHT22;25777;47.824;18.982;2024-01-06T04:20:17;5.50;99.90
40077;DHT22;25777;47.824;18.982;2024-01-06T04:22:46;5.40;99.90
40077;DHT22;25777;47.824;18.982;2024-01-06T04:25:12;5.50;99.90
40077;DHT22;25777;47.824;18.982;2024-01-06T04:27:38;5.50;99.90
40077;DHT22;25777;47.824;18.982;2024-01-06T04:30:06;5.50;99.90
40077;DHT22;25777;47.824;18.982;2024-01-06T04:32:33;5.50;99.90
40077;DHT22;25777;47.824;18.982;2024-01-06T04:35:02;5.50;99.90
40077;DHT22;25777;47.824;18.982;2024-01-06T04:37:29;5.50;99.90
40077;DHT22;25777;47.824;18.982;2024-01-06T04:39:57;5.50;99.90
40077;DHT22;25777;47.824;18.982;2024-01-06T04:42:25;5.50;99.90
40077;DHT22;25777;47.824;18.982;2024-01-06T04:44:55;5.50;99.90
40077;DHT22;25777;47.824;18.982;2024-01-06T04:47:23;5.50;99.90
40077;DHT22;25777;47.824;18.982;2024-01-06T04:49:54;5.50;99.90
40077;DHT22;25777;47.824;18.982;2024-01-06T04:52:22;5.50;99.90
40077;DHT22;25777;47.824;18.982;2024-01-06T04:54:50;5.50;99.90
40077;DHT22;25777;47.824;18.982;2024-01-06T04:57:19;5.60;99.90
40077;DHT22;25777;47.824;18.982;2024-01-06T04:59:46;5.60;99.90
40077;DHT22;25777;47.824;18.982;2024-01-06T05:02:13;5.60;99.90
40077;DHT22;25777;47.824;18.982;2024-01-06T05:04:40;5.50;99.90
40077;DHT22;25777;47.824;18.982;2024-01-06T05:07:13;5.60;99.90
40077;DHT22;25777;47.824;18.982;2024-01-06T05:09:40;5.60;99.90
40077;DHT22;25777;47.824;18.982;2024-01-06T05:12:14;5.60;99.90
40077;DHT22;25777;47.824;18.982;2024-01-06T05:14:44;5.60;99.90
40077;DHT22;25777;47.824;18.982;2024-01-06T05:17:11;5.60;99.90
40077;DHT22;25777;47.824;18.982;2024-01-06T05:19:38;5.60;99.90
40077;DHT22;25777;47.824;18.982;2024-01-06T05:22:05;5.60;99.90
40077;DHT22;25777;47.824;18.982;2024-01-06T05:24:34;5.60;99.90
40077;DHT22;25777;47.824;18.982;2024-01-06T05:27:02;5.70;99.90
40077;DHT22;25777;47.824;18.982;2024-01-06T05:29:29;5.70;99.90
40077;DHT22;25777;47.824;18.982;2024-01-06T05:31:55;5.70;99.90
40077;DHT22;25777;47.824;18.982;2024-01-06T05:34:22;5.70;99.90
40077;DHT22;25777;47.824;18.982;2024-01-06T05:36:48;5.60;99.90
40077;DHT22;25777;47.824;18.982;2024-01-06T05:39:14;5.60;99.90
40077;DHT22;25777;47.824;18.982;2024-01-06T05:41:40;5.60;99.90
40077;DHT22;25777;47.824;18.982;2024-01-06T05:44:06;5.60;99.90
40077;DHT22;25777;47.824;18.982;2024-01-06T05:46:34;5.60;99.90
40077;DHT22;25777;47.824;18.982;2024-01-06T05:49:00;5.60;99.90
40077;DHT22;25777;47.824;18.982;2024-01-06T05:51:26;5.60;99.90
40077;DHT22;25777;47.824;18.982;2024-01-06T05:53:52;5.60;99.90
40077;DHT22;25777;47.824;18.982;2024-01-06T05:56:27;5.60;99.90
40077;DHT22;25777;47.824;18.982;2024-01-06T05:58:54;5.70;99.90
40077;DHT22;25777;47.824;18.982;2024-01-06T06:01:21;5.90;99.90
40077;DHT22;25777;47.824;18.982;2024-01-06T06:03:48;5.90;99.90
40077;DHT22;25777;47.824;18.982;2024-01-06T06:06:15;5.80;99.90
40077;DHT22;25777;47.824;18.982;2024-01-06T06:08:44;5.70;99.90
40077;DHT22;25777;47.824;18.982;2024-01-06T06:11:10;5.80;99.90
40077;DHT22;25777;47.824;18.982;2024-01-06T06:13:46;5.70;99.90
40077;DHT22;25777;47.824;18.982;2024-01-06T06:16:12;5.80;99.90
40077;DHT22;25777;47.824;18.982;2024-01-06T06:18:39;5.90;99.90
40077;DHT22;25777;47.824;18.982;2024-01-06T06:21:07;6.00;99.90
40077;DHT22;25777;47.824;18.982;2024-01-06T06:23:36;5.90;99.90
40077;DHT22;25777;47.824;18.982;2024-01-06T06:26:06;5.80;99.90
40077;DHT22;25777;47.824;18.982;2024-01-06T06:28:35;5.80;99.90
40077;DHT22;25777;47.824;18.982;2024-01-06T06:31:01;5.70;99.90
40077;DHT22;25777;47.824;18.982;2024-01-06T06:33:28;5.80;99.90
40077;DHT22;25777;47.824;18.982;2024-01-06T06:35:55;5.80;99.90
40077;DHT22;25777;47.824;18.982;2024-01-06T06:38:21;5.80;99.90
40077;DHT22;25777;47.824;18.982;2024-01-06T06:40:48;5.70;99.90
40077;DHT22;25777;47.824;18.982;2024-01-06T06:43:14;5.60;99.90
40077;DHT22;25777;47.824;18.982;2024-01-06T06:45:41;5.60;99.90
40077;DHT22;25777;47.824;18.982;2024-01-06T06:48:09;5.60;99.90
40077;DHT22;25777;47.824;18.982;2024-01-06T06:50:36;5.50;99.90
40077;DHT22;25777;47.824;18.982;2024-01-06T06:53:03;5.50;99.90
40077;DHT22;25777;47.824;18.982;2024-01-06T06:55:30;5.50;99.90
40077;DHT22;25777;47.824;18.982;2024-01-06T06:58:01;5.50;99.90
40077;DHT22;25777;47.824;18.982;2024-01-06T07:00:28;5.50;99.90
40077;DHT22;25777;47.824;18.982;2024-01-06T07:02:54;5.40;99.90
40077;DHT22;25777;47.824;18.982;2024-01-06T07:05:20;5.40;99.90
40077;DHT22;25777;47.824;18.982;2024-01-06T07:07:46;5.40;99.90
40077;DHT22;25777;47.824;18.982;2024-01-06T07:10:13;5.50;99.90
40077;DHT22;25777;47.824;18.982;2024-01-06T07:12:40;5.40;99.90
40077;DHT22;25777;47.824;18.982;2024-01-06T07:15:07;5.40;99.90
40077;DHT22;25777;47.824;18.982;2024-01-06T07:17:36;5.40;99.90
40077;DHT22;25777;47.824;18.982;2024-01-06T07:20:06;5.40;99.90
40077;DHT22;25777;47.824;18.982;2024-01-06T07:22:33;5.50;99.90
40077;DHT22;25777;47.824;18.982;2024-01-06T07:25:01;5.60;99.90
40077;DHT22;25777;47.824;18.982;2024-01-06T07:27:28;5.50;99.90
40077;DHT22;25777;47.824;18.982;2024-01-06T07:29:54;5.60;99.90
40077;DHT22;25777;47.824;18.982;2024-01-06T07:32:24;5.50;99.90
40077;DHT22;25777;47.824;18.982;2024-01-06T07:34:51;5.50;99.90
40077;DHT22;25777;47.824;18.982;2024-01-06T07:37:17;5.40;99.90
40077;DHT22;25777;47.824;18.982;2024-01-06T07:39:43;5.60;99.90
40077;DHT22;25777;47.824;18.982;2024-01-06T07:42:10;6.00;99.90
40077;DHT22;25777;47.824;18.982;2024-01-06T07:44:36;6.10;99.90
40077;DHT22;25777;47.824;18.982;2024-01-06T07:47:02;6.00;99.90
40077;DHT22;25777;47.824;18.982;2024-01-06T07:49:30;6.10;99.90
40077;DHT22;25777;47.824;18.982;2024-01-06T07:51:57;6.00;99.90
40077;DHT22;25777;47.824;18.982;2024-01-06T07:54:23;5.90;99.90
40077;DHT22;25777;47.824;18.982;2024-01-06T07:56:48;5.90;99.90
40077;DHT22;25777;47.824;18.982;2024-01-06T07:59:16;5.90;99.90
40077;DHT22;25777;47.824;18.982;2024-01-06T08:01:42;5.90;99.90
40077;DHT22;25777;47.824;18.982;2024-01-06T08:04:21;5.80;99.90
40077;DHT22;25777;47.824;18.982;2024-01-06T08:06:46;5.90;99.90
40077;DHT22;25777;47.824;18.982;2024-01-06T08:09:12;5.80;99.90
40077;DHT22;25777;47.824;18.982;2024-01-06T08:11:38;5.80;99.90
40077;DHT22;25777;47.824;18.982;2024-01-06T08:14:05;5.80;99.90
40077;DHT22;25777;47.824;18.982;2024-01-06T08:16:31;5.80;99.90
40077;DHT22;25777;47.824;18.982;2024-01-06T08:18:57;5.80;99.90
40077;DHT22;25777;47.824;18.982;2024-01-06T08:21:23;5.80;99.90
40077;DHT22;25777;47.824;18.982;2024-01-06T08:23:50;5.70;99.90
40077;DHT22;25777;47.824;18.982;2024-01-06T08:26:16;5.60;99.90
40077;DHT22;25777;47.824;18.982;2024-01-06T08:28:43;5.70;99.90
40077;DHT22;25777;47.824;18.982;2024-01-06T08:31:08;5.60;99.90
40077;DHT22;25777;47.824;18.982;2024-01-06T08:33:34;5.70;99.90
40077;DHT22;25777;47.824;18.982;2024-01-06T08:36:03;5.70;99.90
40077;DHT22;25777;47.824;18.982;2024-01-06T08:38:29;5.70;99.90
40077;DHT22;25777;47.824;18.982;2024-01-06T08:40:55;5.80;99.90
40077;DHT22;25777;47.824;18.982;2024-01-06T08:43:24;5.80;99.90
40077;DHT22;25777;47.824;18.982;2024-01-06T08:45:50;5.70;99.90
40077;DHT22;25777;47.824;18.982;2024-01-06T08:48:16;5.70;99.90
40077;DHT22;25777;47.824;18.982;2024-01-06T08:50:44;5.70;99.90
40077;DHT22;25777;47.824;18.982;2024-01-06T08:53:11;5.70;99.90
40077;DHT22;25777;47.824;18.982;2024-01-06T08:55:37;5.80;99.90
40077;DHT22;25777;47.824;18.982;2024-01-06T08:58:03;5.80;99.90
40077;DHT22;25777;47.824;18.982;2024-01-06T09:00:30;5.80;99.90
40077;DHT22;25777;47.824;18.982;2024-01-06T09:02:56;5.80;99.90
40077;DHT22;25777;47.824;18.982;2024-01-06T09:05:23;5.70;99.90
40077;DHT22;25777;47.824;18.982;2024-01-06T09:07:50;5.70;99.90
40077;DHT22;25777;47.824;18.982;2024-01-06T09:10:17;5.70;99.90
40077;DHT22;25777;47.824;18.982;2024-01-06T09:12:43;5.70;99.90
40077;DHT22;25777;47.824;18.982;2024-01-06T09:15:08;5.60;99.90
40077;DHT22;25777;47.824;18.982;2024-01-06T09:17:35;5.60;99.90
40077;DHT22;25777;47.824;18.982;2024-01-06T09:20:02;5.90;99.90
40077;DHT22;25777;47.824;18.982;2024-01-06T09:22:28;6.00;99.90
40077;DHT22;25777;47.824;18.982;2024-01-06T09:24:54;6.10;99.90
40077;DHT22;25777;47.824;18.982;2024-01-06T09:27:21;5.90;99.90
40077;DHT22;25777;47.824;18.982;2024-01-06T09:29:47;5.80;99.90
40077;DHT22;25777;47.824;18.982;2024-01-06T09:32:13;5.80;99.90
40077;DHT22;25777;47.824;18.982;2024-01-06T09:34:39;5.90;99.90
40077;DHT22;25777;47.824;18.982;2024-01-06T09:37:05;5.70;99.90
40077;DHT22;25777;47.824;18.982;2024-01-06T09:39:31;5.80;99.90
40077;DHT22;25777;47.824;18.982;2024-01-06T09:41:59;5.70;99.90
40077;DHT22;25777;47.824;18.982;2024-01-06T09:44:25;6.00;99.90
40077;DHT22;25777;47.824;18.982;2024-01-06T09:46:55;6.00;99.90
40077;DHT22;25777;47.824;18.982;2024-01-06T09:49:24;6.20;99.90
40077;DHT22;25777;47.824;18.982;2024-01-06T09:51:50;6.00;99.90
40077;DHT22;25777;47.824;18.982;2024-01-06T09:54:25;5.90;99.90
40077;DHT22;25777;47.824;18.982;2024-01-06T09:57:00;6.00;99.90
40077;DHT22;25777;47.824;18.982;2024-01-06T09:59:26;6.00;99.90
40077;DHT22;25777;47.824;18.982;2024-01-06T10:01:53;6.10;99.90
40077;DHT22;25777;47.824;18.982;2024-01-06T10:04:19;6.00;99.90
40077;DHT22;25777;47.824;18.982;2024-01-06T10:06:49;6.10;99.90
40077;DHT22;25777;47.824;18.982;2024-01-06T10:09:15;6.10;99.90
40077;DHT22;25777;47.824;18.982;2024-01-06T10:11:49;6.30;99.90
40077;DHT22;25777;47.824;18.982;2024-01-06T10:14:15;6.60;99.90
40077;DHT22;25777;47.824;18.982;2024-01-06T10:16:51;6.40;99.90
40077;DHT22;25777;47.824;18.982;2024-01-06T10:19:18;6.30;99.90
40077;DHT22;25777;47.824;18.982;2024-01-06T10:21:44;6.30;99.90
40077;DHT22;25777;47.824;18.982;2024-01-06T10:24:10;6.10;99.90
40077;DHT22;25777;47.824;18.982;2024-01-06T10:26:36;6.40;99.90
40077;DHT22;25777;47.824;18.982;2024-01-06T10:29:03;6.30;99.90
40077;DHT22;25777;47.824;18.982;2024-01-06T10:31:33;6.30;99.90
40077;DHT22;25777;47.824;18.982;2024-01-06T10:34:00;6.30;99.90
40077;DHT22;25777;47.824;18.982;2024-01-06T10:36:33;6.30;99.90
40077;DHT22;25777;47.824;18.982;2024-01-06T10:39:04;6.20;99.90
40077;DHT22;25777;47.824;18.982;2024-01-06T10:41:36;6.30;99.90
40077;DHT22;25777;47.824;18.982;2024-01-06T10:44:05;6.10;99.90
40077;DHT22;25777;47.824;18.982;2024-01-06T10:46:32;6.00;99.90
40077;DHT22;25777;47.824;18.982;2024-01-06T10:49:00;5.90;99.90
40077;DHT22;25777;47.824;18.982;2024-01-06T10:51:28;6.00;99.90
40077;DHT22;25777;47.824;18.982;2024-01-06T10:53:55;6.30;99.90
40077;DHT22;25777;47.824;18.982;2024-01-06T10:56:25;6.60;99.90
40077;DHT22;25777;47.824;18.982;2024-01-06T10:58:57;6.60;99.90
40077;DHT22;25777;47.824;18.982;2024-01-06T11:01:25;6.40;99.90
40077;DHT22;25777;47.824;18.982;2024-01-06T11:03:52;6.30;99.90
40077;DHT22;25777;47.824;18.982;2024-01-06T11:06:20;6.40;99.90
40077;DHT22;25777;47.824;18.982;2024-01-06T11:11:25;6.80;99.90
40077;DHT22;25777;47.824;18.982;2024-01-06T11:13:52;6.70;99.90
40077;DHT22;25777;47.824;18.982;2024-01-06T11:16:36;6.60;99.90
40077;DHT22;25777;47.824;18.982;2024-01-06T11:24:56;6.50;99.90
40077;DHT22;25777;47.824;18.982;2024-01-06T11:27:31;6.30;99.90
40077;DHT22;25777;47.824;18.982;2024-01-06T11:30:02;6.20;99.90
40077;DHT22;25777;47.824;18.982;2024-01-06T11:32:34;6.20;99.90
40077;DHT22;25777;47.824;18.982;2024-01-06T11:35:13;6.20;99.90
40077;DHT22;25777;47.824;18.982;2024-01-06T11:43:02;7.10;99.90
40077;DHT22;25777;47.824;18.982;2024-01-06T11:45:30;7.30;99.90
40077;DHT22;25777;47.824;18.982;2024-01-06T11:48:00;7.30;99.90
40077;DHT22;25777;47.824;18.982;2024-01-06T11:50:32;7.20;99.90
40077;DHT22;25777;47.824;18.982;2024-01-06T11:53:02;7.30;99.90
40077;DHT22;25777;47.824;18.982;2024-01-06T11:55:30;7.50;99.90
40077;DHT22;25777;47.824;18.982;2024-01-06T11:58:01;7.30;99.90
40077;DHT22;25777;47.824;18.982;2024-01-06T12:00:34;7.00;99.90
40077;DHT22;25777;47.824;18.982;2024-01-06T12:03:02;6.80;99.90
40077;DHT22;25777;47.824;18.982;2024-01-06T12:05:28;6.60;99.90
40077;DHT22;25777;47.824;18.982;2024-01-06T12:10:22;6.90;99.90
40077;DHT22;25777;47.824;18.982;2024-01-06T12:13:15;7.00;99.90
40077;DHT22;25777;47.824;18.982;2024-01-06T12:15:44;7.10;99.90
40077;DHT22;25777;47.824;18.982;2024-01-06T12:18:12;7.10;99.90
40077;DHT22;25777;47.824;18.982;2024-01-06T12:20:37;6.80;99.90
40077;DHT22;25777;47.824;18.982;2024-01-06T12:23:04;7.00;99.90
40077;DHT22;25777;47.824;18.982;2024-01-06T12:25:31;6.80;99.90
40077;DHT22;25777;47.824;18.982;2024-01-06T12:28:01;6.80;99.90
40077;DHT22;25777;47.824;18.982;2024-01-06T12:30:27;6.80;99.90
40077;DHT22;25777;47.824;18.982;2024-01-06T12:32:55;7.00;99.90
40077;DHT22;25777;47.824;18.982;2024-01-06T12:35:22;6.70;99.90
40077;DHT22;25777;47.824;18.982;2024-01-06T12:37:48;6.50;99.90
40077;DHT22;25777;47.824;18.982;2024-01-06T12:40:18;6.50;99.90
40077;DHT22;25777;47.824;18.982;2024-01-06T12:42:46;6.80;99.90
40077;DHT22;25777;47.824;18.982;2024-01-06T12:45:13;6.60;99.90
40077;DHT22;25777;47.824;18.982;2024-01-06T12:47:41;6.50;99.90
40077;DHT22;25777;47.824;18.982;2024-01-06T12:50:09;6.50;99.90
40077;DHT22;25777;47.824;18.982;2024-01-06T12:52:40;6.60;99.90
40077;DHT22;25777;47.824;18.982;2024-01-06T12:55:07;6.60;99.90
40077;DHT22;25777;47.824;18.982;2024-01-06T12:57:33;6.60;99.90
40077;DHT22;25777;47.824;18.982;2024-01-06T13:00:00;6.70;99.90
40077;DHT22;25777;47.824;18.982;2024-01-06T13:02:29;6.70;99.90
40077;DHT22;25777;47.824;18.982;2024-01-06T13:04:55;6.70;99.90
40077;DHT22;25777;47.824;18.982;2024-01-06T13:07:22;6.70;99.90
40077;DHT22;25777;47.824;18.982;2024-01-06T13:09:48;6.70;99.90
40077;DHT22;25777;47.824;18.982;2024-01-06T13:12:14;6.60;99.90
40077;DHT22;25777;47.824;18.982;2024-01-06T13:14:40;6.70;99.90
40077;DHT22;25777;47.824;18.982;2024-01-06T13:17:09;6.70;99.90
40077;DHT22;25777;47.824;18.982;2024-01-06T13:19:35;6.70;99.90
40077;DHT22;25777;47.824;18.982;2024-01-06T13:22:01;6.70;99.90
40077;DHT22;25777;47.824;18.982;2024-01-06T13:24:30;6.70;99.90
40077;DHT22;25777;47.824;18.982;2024-01-06T13:26:57;6.70;99.90
40077;DHT22;25777;47.824;18.982;2024-01-06T13:29:34;6.70;99.90
40077;DHT22;25777;47.824;18.982;2024-01-06T13:32:05;6.70;99.90
40077;DHT22;25777;47.824;18.982;2024-01-06T13:34:54;6.60;99.90
40077;DHT22;25777;47.824;18.982;2024-01-06T13:37:27;6.60;99.90
40077;DHT22;25777;47.824;18.982;2024-01-06T13:39:53;6.60;99.90
40077;DHT22;25777;47.824;18.982;2024-01-06T13:42:19;6.60;99.90
40077;DHT22;25777;47.824;18.982;2024-01-06T13:44:47;6.50;99.90
40077;DHT22;25777;47.824;18.982;2024-01-06T13:47:19;6.60;99.90
40077;DHT22;25777;47.824;18.982;2024-01-06T13:49:46;6.60;99.90
40077;DHT22;25777;47.824;18.982;2024-01-06T13:52:13;6.80;99.90
40077;DHT22;25777;47.824;18.982;2024-01-06T13:54:41;6.70;99.90
40077;DHT22;25777;47.824;18.982;2024-01-06T13:57:08;6.70;99.90
40077;DHT22;25777;47.824;18.982;2024-01-06T13:59:34;6.70;99.90
40077;DHT22;25777;47.824;18.982;2024-01-06T14:02:07;6.70;99.90
40077;DHT22;25777;47.824;18.982;2024-01-06T14:04:37;6.80;99.90
40077;DHT22;25777;47.824;18.982;2024-01-06T14:07:07;6.70;99.90
40077;DHT22;25777;47.824;18.982;2024-01-06T14:09:36;6.70;99.90
40077;DHT22;25777;47.824;18.982;2024-01-06T14:12:08;6.70;99.90
40077;DHT22;25777;47.824;18.982;2024-01-06T14:14:36;6.70;99.90
40077;DHT22;25777;47.824;18.982;2024-01-06T14:17:04;6.60;99.90
40077;DHT22;25777;47.824;18.982;2024-01-06T14:19:32;6.60;99.90
40077;DHT22;25777;47.824;18.982;2024-01-06T14:21:59;6.70;99.90
40077;DHT22;25777;47.824;18.982;2024-01-06T14:24:26;6.70;99.90
40077;DHT22;25777;47.824;18.982;2024-01-06T14:26:56;6.70;99.90
40077;DHT22;25777;47.824;18.982;2024-01-06T14:29:24;6.60;99.90
40077;DHT22;25777;47.824;18.982;2024-01-06T14:31:50;6.70;99.90
40077;DHT22;25777;47.824;18.982;2024-01-06T14:34:16;6.60;99.90
40077;DHT22;25777;47.824;18.982;2024-01-06T14:36:44;6.60;99.90
40077;DHT22;25777;47.824;18.982;2024-01-06T14:39:21;6.70;99.90
40077;DHT22;25777;47.824;18.982;2024-01-06T14:41:48;6.70;99.90
40077;DHT22;25777;47.824;18.982;2024-01-06T14:44:15;6.60;99.90
40077;DHT22;25777;47.824;18.982;2024-01-06T14:46:44;6.60;99.90
40077;DHT22;25777;47.824;18.982;2024-01-06T14:49:13;6.60;99.90
40077;DHT22;25777;47.824;18.982;2024-01-06T14:51:40;6.60;99.90
40077;DHT22;25777;47.824;18.982;2024-01-06T14:54:08;6.60;99.90
40077;DHT22;25777;47.824;18.982;2024-01-06T14:56:38;6.60;99.90
40077;DHT22;25777;47.824;18.982;2024-01-06T14:59:09;6.60;99.90
40077;DHT22;25777;47.824;18.982;2024-01-06T15:01:37;6.60;99.90
40077;DHT22;25777;47.824;18.982;2024-01-06T15:04:07;6.60;99.90
40077;DHT22;25777;47.824;18.982;2024-01-06T15:06:34;6.60;99.90
40077;DHT22;25777;47.824;18.982;2024-01-06T15:09:04;6.60;99.90
40077;DHT22;25777;47.824;18.982;2024-01-06T15:11:30;6.60;99.90
40077;DHT22;25777;47.824;18.982;2024-01-06T15:13:56;6.50;99.90
40077;DHT22;25777;47.824;18.982;2024-01-06T15:16:29;6.50;99.90
40077;DHT22;25777;47.824;18.982;2024-01-06T15:18:55;6.50;99.90
40077;DHT22;25777;47.824;18.982;2024-01-06T15:21:24;6.60;99.90
40077;DHT22;25777;47.824;18.982;2024-01-06T15:23:52;6.50;99.90
40077;DHT22;25777;47.824;18.982;2024-01-06T15:26:24;6.50;99.90
40077;DHT22;25777;47.824;18.982;2024-01-06T15:28:53;6.50;99.90
40077;DHT22;25777;47.824;18.982;2024-01-06T15:31:19;6.50;99.90
40077;DHT22;25777;47.824;18.982;2024-01-06T15:33:45;6.50;99.90
40077;DHT22;25777;47.824;18.982;2024-01-06T15:36:13;6.50;99.90
40077;DHT22;25777;47.824;18.982;2024-01-06T15:38:41;6.50;99.90
40077;DHT22;25777;47.824;18.982;2024-01-06T15:41:06;6.60;99.90
40077;DHT22;25777;47.824;18.982;2024-01-06T15:43:33;6.50;99.90
40077;DHT22;25777;47.824;18.982;2024-01-06T15:46:00;6.50;99.90
40077;DHT22;25777;47.824;18.982;2024-01-06T15:48:26;6.50;99.90
40077;DHT22;25777;47.824;18.982;2024-01-06T15:50:52;6.50;99.90